Time;durP1;ratioP1;P1;durP2;ratioP2;P2;SDS_P1;SDS_P2;PMS_P1;PMS_P2;Temp;Humidity;BMP_temperature;BMP_pressure;BME280_temperature;BME280_humidity;BME280_pressure;Samples;Min_cycle;Max_cycle;Signal;HPM_P1;HPM_P2
2022/08/03 00:00:39;;;;;;;4.10;3.70;;;;;;;;;;5049667;28;20437;-52
2022/08/03 00:03:05;;;;;;;4.87;3.40;;;;;;;;;;5052369;28;20451;-52
2022/08/03 00:05:32;;;;;;;4.77;3.80;;;;;;;;;;5052673;28;20483;-51
2022/08/03 00:07:58;;;;;;;7.27;3.73;;;;;;;;;;5052382;28;20425;-52
2022/08/03 00:10:25;;;;;;;3.90;3.60;;;;;;;;;;5051689;28;20399;-52
2022/08/03 00:12:52;;;;;;;3.70;3.40;;;;;;;;;;5052302;28;20456;-52
2022/08/03 00:15:17;;;;;;;5.60;4.00;;;;;;;;;;5047972;28;20866;-52
2022/08/03 00:17:44;;;;;;;3.63;3.07;;;;;;;;;;5052116;28;20399;-52
2022/08/03 00:20:10;;;;;;;3.73;3.43;;;;;;;;;;5051476;28;20818;-52
2022/08/03 00:22:36;;;;;;;4.60;3.80;;;;;;;;;;5052054;28;20393;-52
2022/08/03 00:25:02;;;;;;;3.40;3.20;;;;;;;;;;5052037;28;20420;-52
2022/08/03 00:27:28;;;;;;;4.10;3.80;;;;;;;;;;5051751;28;20402;-52
2022/08/03 00:29:54;;;;;;;6.57;3.73;;;;;;;;;;5051371;28;20409;-52
2022/08/03 00:32:20;;;;;;;4.30;3.80;;;;;;;;;;5052271;28;20466;-52
2022/08/03 00:34:46;;;;;;;3.80;3.50;;;;;;;;;;5052049;28;20436;-52
2022/08/03 00:37:12;;;;;;;3.83;3.50;;;;;;;;;;5051954;28;20436;-52
2022/08/03 00:39:39;;;;;;;3.77;3.47;;;;;;;;;;5051704;28;20523;-52
2022/08/03 00:42:05;;;;;;;6.40;3.30;;;;;;;;;;5051642;28;20412;-52
2022/08/03 00:44:32;;;;;;;3.47;3.27;;;;;;;;;;5048633;28;20597;-52
2022/08/03 00:46:58;;;;;;;4.00;3.13;;;;;;;;;;5050644;28;20452;-52
2022/08/03 00:49:24;;;;;;;7.23;3.67;;;;;;;;;;5051679;28;20397;-52
2022/08/03 00:51:50;;;;;;;4.13;3.73;;;;;;;;;;5051388;28;20405;-52
2022/08/03 00:54:16;;;;;;;3.53;3.23;;;;;;;;;;5051734;28;20409;-52
2022/08/03 00:56:42;;;;;;;8.57;4.10;;;;;;;;;;5051619;28;20533;-52
2022/08/03 00:59:09;;;;;;;5.37;3.93;;;;;;;;;;5051603;28;20414;-52
2022/08/03 01:01:36;;;;;;;5.73;3.57;;;;;;;;;;5046772;28;20496;-52
2022/08/03 01:04:02;;;;;;;5.00;4.50;;;;;;;;;;5051292;28;20460;-52
2022/08/03 01:06:37;;;;;;;5.10;4.40;;;;;;;;;;5051157;28;20423;-52
2022/08/03 01:09:06;;;;;;;4.13;3.83;;;;;;;;;;5051428;28;20382;-52
2022/08/03 01:11:39;;;;;;;8.73;4.10;;;;;;;;;;5051040;28;21082;-52
2022/08/03 01:14:08;;;;;;;4.17;3.77;;;;;;;;;;5051569;28;20400;-52
2022/08/03 01:16:46;;;;;;;4.40;4.00;;;;;;;;;;5048238;28;20466;-52
2022/08/03 01:19:35;;;;;;;4.43;4.03;;;;;;;;;;5051505;28;20404;-52
2022/08/03 01:22:16;;;;;;;7.73;4.10;;;;;;;;;;5051035;28;20487;-52
2022/08/03 01:25:01;;;;;;;5.80;3.70;;;;;;;;;;5051369;28;20482;-51
2022/08/03 01:27:45;;;;;;;4.30;3.60;;;;;;;;;;5051651;28;20394;-52
2022/08/03 01:30:11;;;;;;;4.20;3.80;;;;;;;;;;5050628;28;20461;-52
2022/08/03 01:32:40;;;;;;;5.17;4.10;;;;;;;;;;5051469;28;20425;-52
2022/08/03 01:35:09;;;;;;;7.00;4.30;;;;;;;;;;5051284;28;20399;-52
2022/08/03 01:37:40;;;;;;;4.10;3.70;;;;;;;;;;5051169;28;20410;-52
2022/08/03 01:40:07;;;;;;;5.57;4.10;;;;;;;;;;5054170;28;20428;-52
2022/08/03 01:42:34;;;;;;;4.23;3.83;;;;;;;;;;5055072;28;20397;-52
2022/08/03 01:45:01;;;;;;;4.43;4.00;;;;;;;;;;5051376;28;20456;-52
2022/08/03 01:47:27;;;;;;;6.03;3.80;;;;;;;;;;5054728;28;20565;-52
2022/08/03 01:49:54;;;;;;;4.13;3.73;;;;;;;;;;5054325;28;20434;-52
2022/08/03 01:52:21;;;;;;;4.30;3.90;;;;;;;;;;5054875;28;20410;-52
2022/08/03 01:54:49;;;;;;;6.63;4.30;;;;;;;;;;5054990;28;20493;-52
2022/08/03 01:57:16;;;;;;;5.17;4.67;;;;;;;;;;5075209;22;20895;-51
2022/08/03 01:59:42;;;;;;;7.00;4.30;;;;;;;;;;5054261;28;20390;-52
2022/08/03 02:02:10;;;;;;;6.60;4.50;;;;;;;;;;5054771;28;20383;-51
2022/08/03 02:04:39;;;;;;;3.73;3.43;;;;;;;;;;5054873;28;20514;-52
2022/08/03 02:07:06;;;;;;;4.10;3.67;;;;;;;;;;5070694;28;20418;-51
2022/08/03 02:09:32;;;;;;;4.33;4.03;;;;;;;;;;5073853;28;20402;-51
2022/08/03 02:11:59;;;;;;;6.70;3.80;;;;;;;;;;5073822;28;20410;-52
2022/08/03 02:14:27;;;;;;;4.30;3.90;;;;;;;;;;5073282;28;20430;-51
2022/08/03 02:16:54;;;;;;;3.83;3.40;;;;;;;;;;5074366;28;20828;-51
2022/08/03 02:19:20;;;;;;;4.20;3.80;;;;;;;;;;5074478;28;20420;-51
2022/08/03 02:21:46;;;;;;;6.10;4.30;;;;;;;;;;5073639;28;20439;-51
2022/08/03 02:24:12;;;;;;;6.37;4.00;;;;;;;;;;5074255;28;20599;-51
2022/08/03 02:26:40;;;;;;;6.57;4.20;;;;;;;;;;5074355;28;20972;-51
2022/08/03 02:29:09;;;;;;;5.70;4.30;;;;;;;;;;5074185;28;20880;-50
2022/08/03 02:31:37;;;;;;;3.97;3.67;;;;;;;;;;5073690;28;20397;-51
2022/08/03 02:34:06;;;;;;;5.87;4.03;;;;;;;;;;5074166;28;20401;-51
2022/08/03 02:36:34;;;;;;;4.10;3.70;;;;;;;;;;5074157;28;20430;-51
2022/08/03 02:39:02;;;;;;;7.10;4.20;;;;;;;;;;5074097;28;20405;-51
2022/08/03 02:41:35;;;;;;;4.70;4.30;;;;;;;;;;5071647;28;20439;-51
2022/08/03 02:44:02;;;;;;;8.60;3.80;;;;;;;;;;5053882;28;20507;-51
2022/08/03 02:46:31;;;;;;;4.73;3.80;;;;;;;;;;5053943;28;20421;-51
2022/08/03 02:49:00;;;;;;;6.80;4.00;;;;;;;;;;5053633;28;20406;-50
2022/08/03 02:51:28;;;;;;;4.93;4.53;;;;;;;;;;5052802;28;20430;-52
2022/08/03 02:53:55;;;;;;;4.80;4.17;;;;;;;;;;5053808;28;20402;-52
2022/08/03 02:56:21;;;;;;;5.30;4.90;;;;;;;;;;5052440;28;20540;-51
2022/08/03 02:58:49;;;;;;;6.23;4.40;;;;;;;;;;5053632;28;20411;-51
2022/08/03 03:01:15;;;;;;;4.47;4.07;;;;;;;;;;5053122;28;20411;-51
2022/08/03 03:03:41;;;;;;;5.50;4.00;;;;;;;;;;5053606;28;20447;-51
2022/08/03 03:06:08;;;;;;;5.53;4.00;;;;;;;;;;5053487;28;20783;-51
2022/08/03 03:08:34;;;;;;;5.83;4.20;;;;;;;;;;5053588;28;20399;-51
2022/08/03 03:11:01;;;;;;;5.50;4.50;;;;;;;;;;5052587;28;20432;-50
2022/08/03 03:13:29;;;;;;;11.40;4.60;;;;;;;;;;5053125;28;20435;-50
2022/08/03 03:15:56;;;;;;;5.23;4.20;;;;;;;;;;5053371;28;20449;-50
2022/08/03 03:18:24;;;;;;;5.00;4.50;;;;;;;;;;5053413;28;20404;-50
2022/08/03 03:20:52;;;;;;;4.60;4.20;;;;;;;;;;5052635;28;20406;-51
2022/08/03 03:23:19;;;;;;;4.77;4.37;;;;;;;;;;5053354;28;20453;-52
2022/08/03 03:25:47;;;;;;;4.40;4.07;;;;;;;;;;5053195;28;20431;-50
2022/08/03 03:28:14;;;;;;;6.30;4.50;;;;;;;;;;5053134;28;20908;-51
2022/08/03 03:30:40;;;;;;;7.00;5.20;;;;;;;;;;5052502;28;20401;-50
2022/08/03 03:33:07;;;;;;;6.37;4.60;;;;;;;;;;5053125;28;20481;-51
2022/08/03 03:35:35;;;;;;;5.13;4.20;;;;;;;;;;5052909;28;20442;-51
2022/08/03 03:38:01;;;;;;;3.87;3.57;;;;;;;;;;5053083;28;20536;-51
2022/08/03 03:40:30;;;;;;;5.23;3.97;;;;;;;;;;5057077;28;20487;-51
2022/08/03 03:46:00;;;;;;;4.70;4.30;;;;;;;;;;5072786;28;20408;-51
2022/08/03 03:48:26;;;;;;;6.30;3.67;;;;;;;;;;5072791;28;20402;-52
2022/08/03 03:50:52;;;;;;;6.93;4.07;;;;;;;;;;5071975;28;20416;-52
2022/08/03 03:53:18;;;;;;;4.37;4.00;;;;;;;;;;5072704;28;20397;-52
2022/08/03 03:55:44;;;;;;;5.70;3.90;;;;;;;;;;5071297;28;20547;-52
2022/08/03 03:58:10;;;;;;;5.03;4.43;;;;;;;;;;5072690;28;20401;-51
2022/08/03 04:00:36;;;;;;;5.73;4.27;;;;;;;;;;5071583;28;20396;-50
2022/08/03 04:03:02;;;;;;;4.70;4.20;;;;;;;;;;5072104;28;20492;-50
2022/08/03 04:11:14;;;;;;;7.13;3.90;;;;;;;;;;5052045;28;20406;-50
2022/08/03 04:13:41;;;;;;;9.00;4.40;;;;;;;;;;5052248;28;20902;-50
2022/08/03 04:16:09;;;;;;;4.90;4.50;;;;;;;;;;5052371;28;20432;-51
2022/08/03 04:18:37;;;;;;;4.43;4.03;;;;;;;;;;5052166;28;20401;-50
2022/08/03 04:21:04;;;;;;;7.20;4.50;;;;;;;;;;5065498;28;20432;-51
2022/08/03 04:23:31;;;;;;;5.20;4.70;;;;;;;;;;5071214;28;20460;-50
2022/08/03 04:25:58;;;;;;;4.30;3.93;;;;;;;;;;5072153;28;20789;-51
2022/08/03 04:28:24;;;;;;;12.97;3.70;;;;;;;;;;5072031;28;20431;-51
2022/08/03 04:30:52;;;;;;;5.23;3.87;;;;;;;;;;5071635;28;20486;-50
2022/08/03 04:33:19;;;;;;;4.90;4.30;;;;;;;;;;5072065;28;20404;-51
2022/08/03 04:35:46;;;;;;;4.93;4.33;;;;;;;;;;5071977;28;20950;-50
2022/08/03 04:38:12;;;;;;;4.33;4.00;;;;;;;;;;5071951;28;20436;-51
2022/08/03 04:40:39;;;;;;;4.30;3.90;;;;;;;;;;5069384;28;20499;-50
2022/08/03 04:43:06;;;;;;;5.00;4.50;;;;;;;;;;5071907;28;20478;-50
2022/08/03 04:45:34;;;;;;;7.50;4.40;;;;;;;;;;5071947;28;20447;-51
2022/08/03 04:48:00;;;;;;;5.00;4.60;;;;;;;;;;5071907;28;20396;-50
2022/08/03 04:50:26;;;;;;;7.63;5.27;;;;;;;;;;5071240;28;20412;-51
2022/08/03 04:52:52;;;;;;;5.13;4.63;;;;;;;;;;5071900;28;20488;-51
2022/08/03 04:55:45;;;;;;;4.10;3.40;;;;;;;;;;5071477;28;21023;-52
2022/08/03 04:58:11;;;;;;;4.13;3.73;;;;;;;;;;5070734;28;20909;-50
2022/08/03 05:00:37;;;;;;;3.77;3.47;;;;;;;;;;5070962;28;20540;-51
2022/08/03 05:03:03;;;;;;;6.60;4.57;;;;;;;;;;5071709;28;20401;-52
2022/08/03 05:05:29;;;;;;;4.13;3.50;;;;;;;;;;5066694;28;20460;-51
2022/08/03 05:07:55;;;;;;;4.23;3.83;;;;;;;;;;5071739;28;20428;-50
2022/08/03 05:10:21;;;;;;;5.10;4.10;;;;;;;;;;5070884;28;20408;-50
2022/08/03 05:12:50;;;;;;;4.43;3.93;;;;;;;;;;5073222;28;20401;-51
2022/08/03 05:15:16;;;;;;;6.23;4.10;;;;;;;;;;5075607;28;20482;-51
2022/08/03 05:17:42;;;;;;;4.40;4.00;;;;;;;;;;5075513;28;20425;-50
2022/08/03 05:20:08;;;;;;;4.20;3.90;;;;;;;;;;5074770;28;20493;-51
2022/08/03 05:22:34;;;;;;;4.40;3.90;;;;;;;;;;5075535;28;20535;-51
2022/08/03 05:25:01;;;;;;;5.10;3.70;;;;;;;;;;5075361;28;20965;-51
2022/08/03 05:27:27;;;;;;;5.60;3.47;;;;;;;;;;5075392;28;20423;-50
2022/08/03 05:29:53;;;;;;;3.40;3.20;;;;;;;;;;5074968;28;20476;-50
2022/08/03 05:32:19;;;;;;;15.80;3.87;;;;;;;;;;5075376;28;20403;-50
2022/08/03 05:34:45;;;;;;;3.57;3.27;;;;;;;;;;5071323;28;20452;-51
2022/08/03 05:37:11;;;;;;;5.00;3.77;;;;;;;;;;5061694;28;20466;-51
2022/08/03 05:39:37;;;;;;;4.93;3.83;;;;;;;;;;5074552;28;20801;-51
2022/08/03 05:42:03;;;;;;;9.10;4.30;;;;;;;;;;5073984;28;20407;-51
2022/08/03 05:44:30;;;;;;;7.00;4.07;;;;;;;;;;5074712;28;20537;-51
2022/08/03 05:46:56;;;;;;;4.80;4.07;;;;;;;;;;5074420;28;20495;-51
2022/08/03 05:49:22;;;;;;;4.87;4.30;;;;;;;;;;5074973;28;20867;-51
2022/08/03 05:51:48;;;;;;;3.93;3.63;;;;;;;;;;5074202;28;20412;-51
2022/08/03 05:54:14;;;;;;;6.47;3.97;;;;;;;;;;5074949;28;20402;-51
2022/08/03 05:56:40;;;;;;;3.63;3.33;;;;;;;;;;5074614;28;20438;-51
2022/08/03 05:59:06;;;;;;;3.47;3.10;;;;;;;;;;5074999;28;20954;-51
2022/08/03 06:01:32;;;;;;;3.23;2.93;;;;;;;;;;5074073;28;20503;-51
2022/08/03 06:03:58;;;;;;;3.60;3.23;;;;;;;;;;5074674;28;20835;-51
2022/08/03 06:06:24;;;;;;;9.63;3.53;;;;;;;;;;5072825;28;20923;-51
2022/08/03 06:08:50;;;;;;;3.80;3.50;;;;;;;;;;5074796;28;20427;-51
2022/08/03 06:11:16;;;;;;;3.13;2.80;;;;;;;;;;5074016;28;20754;-51
2022/08/03 06:13:43;;;;;;;3.63;3.10;;;;;;;;;;5074518;28;20408;-51
2022/08/03 06:16:09;;;;;;;5.40;3.73;;;;;;;;;;5074544;28;20423;-51
2022/08/03 06:18:35;;;;;;;9.30;3.60;;;;;;;;;;5073994;28;20500;-51
2022/08/03 06:21:01;;;;;;;3.80;3.40;;;;;;;;;;5073808;28;20433;-51
2022/08/03 06:23:27;;;;;;;4.30;3.27;;;;;;;;;;5074215;28;20479;-51
2022/08/03 06:25:53;;;;;;;4.60;3.70;;;;;;;;;;5073864;28;20438;-52
2022/08/03 06:28:19;;;;;;;6.43;2.93;;;;;;;;;;5074327;28;20389;-51
2022/08/03 06:30:45;;;;;;;7.00;3.37;;;;;;;;;;5073571;28;20392;-51
2022/08/03 06:33:11;;;;;;;3.83;2.80;;;;;;;;;;5074159;28;20458;-51
2022/08/03 06:35:38;;;;;;;3.17;2.80;;;;;;;;;;5060471;28;20457;-50
2022/08/03 06:38:04;;;;;;;4.20;3.10;;;;;;;;;;5054104;28;20496;-51
2022/08/03 06:40:30;;;;;;;3.10;2.80;;;;;;;;;;5053394;28;20444;-51
2022/08/03 06:42:57;;;;;;;9.90;2.90;;;;;;;;;;5054062;28;20432;-50
2022/08/03 06:45:23;;;;;;;3.67;3.37;;;;;;;;;;5053867;28;20820;-51
2022/08/03 06:47:59;;;;;;;6.23;2.90;;;;;;;;;;5053877;28;20437;-51
2022/08/03 06:50:25;;;;;;;3.40;3.10;;;;;;;;;;5053103;28;20445;-52
2022/08/03 06:52:51;;;;;;;4.60;3.20;;;;;;;;;;5053873;28;20401;-50
2022/08/03 06:55:17;;;;;;;5.00;3.20;;;;;;;;;;5053651;28;20401;-51
2022/08/03 06:57:43;;;;;;;4.77;4.07;;;;;;;;;;5057384;28;20431;-50
2022/08/03 07:00:10;;;;;;;3.50;3.20;;;;;;;;;;5059018;28;20407;-51
2022/08/03 07:02:36;;;;;;;3.80;3.50;;;;;;;;;;5053731;28;20406;-51
2022/08/03 07:05:03;;;;;;;3.17;2.87;;;;;;;;;;5052157;28;20834;-51
2022/08/03 07:07:29;;;;;;;3.60;3.00;;;;;;;;;;5051232;28;20779;-51
2022/08/03 07:09:55;;;;;;;3.60;3.30;;;;;;;;;;5051008;28;20404;-51
2022/08/03 07:12:21;;;;;;;5.17;3.33;;;;;;;;;;5052280;28;20737;-51
2022/08/03 07:14:47;;;;;;;3.57;2.90;;;;;;;;;;5052979;28;20400;-51
2022/08/03 07:17:13;;;;;;;4.00;2.87;;;;;;;;;;5059215;28;20503;-52
2022/08/03 07:19:39;;;;;;;3.17;2.77;;;;;;;;;;5057770;28;20519;-52
2022/08/03 07:22:05;;;;;;;4.30;2.40;;;;;;;;;;5052821;28;20436;-52
2022/08/03 07:24:31;;;;;;;4.80;3.10;;;;;;;;;;5053809;28;20491;-51
2022/08/03 07:26:57;;;;;;;4.17;3.00;;;;;;;;;;5053115;28;20424;-51
2022/08/03 07:29:23;;;;;;;9.63;2.93;;;;;;;;;;5053097;28;20876;-52
2022/08/03 07:31:50;;;;;;;3.47;2.70;;;;;;;;;;5052917;28;20429;-52
2022/08/03 07:34:16;;;;;;;5.07;3.10;;;;;;;;;;5051528;28;20788;-51
2022/08/03 07:36:42;;;;;;;3.40;3.20;;;;;;;;;;5052016;28;20524;-52
2022/08/03 07:39:08;;;;;;;3.60;3.13;;;;;;;;;;5052964;28;20769;-51
2022/08/03 07:41:33;;;;;;;3.30;3.10;;;;;;;;;;5052322;28;20491;-51
2022/08/03 07:43:59;;;;;;;6.10;3.17;;;;;;;;;;5052665;28;20445;-51
2022/08/03 07:46:25;;;;;;;2.90;2.60;;;;;;;;;;5052859;28;20891;-51
2022/08/03 07:48:51;;;;;;;3.00;2.80;;;;;;;;;;5052678;28;20397;-51
2022/08/03 07:51:17;;;;;;;3.10;2.90;;;;;;;;;;5052174;28;20401;-51
2022/08/03 07:53:43;;;;;;;3.30;2.80;;;;;;;;;;5052697;28;20401;-53
2022/08/03 07:56:09;;;;;;;2.93;2.70;;;;;;;;;;5053381;28;20452;-51
2022/08/03 07:58:35;;;;;;;3.03;2.40;;;;;;;;;;5052312;28;20820;-50
2022/08/03 08:01:01;;;;;;;2.67;2.47;;;;;;;;;;5051237;28;20854;-51
2022/08/03 08:03:27;;;;;;;3.90;2.70;;;;;;;;;;5052475;28;20515;-51
2022/08/03 08:05:54;;;;;;;4.27;2.37;;;;;;;;;;5065435;28;20526;-51
2022/08/03 08:08:20;;;;;;;8.43;2.63;;;;;;;;;;5071444;28;20951;-51
2022/08/03 08:10:47;;;;;;;2.70;2.40;;;;;;;;;;5070503;28;20503;-51
2022/08/03 08:13:13;;;;;;;2.53;2.40;;;;;;;;;;5072406;28;20438;-51
2022/08/03 08:15:39;;;;;;;2.30;2.10;;;;;;;;;;5072239;28;20431;-51
2022/08/03 08:18:05;;;;;;;5.77;1.90;;;;;;;;;;5072363;28;20400;-51
2022/08/03 08:20:32;;;;;;;2.50;2.30;;;;;;;;;;5071295;28;20453;-52
2022/08/03 08:22:59;;;;;;;2.90;1.93;;;;;;;;;;5072117;28;20396;-51
2022/08/03 08:25:26;;;;;;;1.90;1.80;;;;;;;;;;5072053;28;20411;-51
2022/08/03 08:27:52;;;;;;;6.03;2.00;;;;;;;;;;5072235;28;20814;-51
2022/08/03 08:30:19;;;;;;;2.50;2.00;;;;;;;;;;5071297;28;20415;-52
2022/08/03 08:32:45;;;;;;;2.70;2.23;;;;;;;;;;5072157;28;20389;-51
2022/08/03 08:35:11;;;;;;;3.90;2.20;;;;;;;;;;5070415;28;20800;-51
2022/08/03 08:37:39;;;;;;;3.23;2.40;;;;;;;;;;5071990;28;20491;-51
2022/08/03 08:40:05;;;;;;;3.13;1.90;;;;;;;;;;5071333;28;20430;-51
2022/08/03 08:42:32;;;;;;;4.80;2.70;;;;;;;;;;5071916;28;20458;-51
2022/08/03 08:44:59;;;;;;;2.03;1.90;;;;;;;;;;5072528;28;20458;-52
2022/08/03 08:47:28;;;;;;;1.97;1.73;;;;;;;;;;5071564;28;20492;-51
2022/08/03 08:49:54;;;;;;;2.03;1.93;;;;;;;;;;5071043;28;20399;-51
2022/08/03 08:52:30;;;;;;;2.60;2.40;;;;;;;;;;5071799;28;20396;-52
2022/08/03 08:54:58;;;;;;;1.90;1.80;;;;;;;;;;5071813;28;20815;-53
2022/08/03 08:57:25;;;;;;;2.73;2.00;;;;;;;;;;5071610;28;20431;-51
2022/08/03 08:59:54;;;;;;;2.07;1.73;;;;;;;;;;5071121;28;20419;-52
2022/08/03 09:02:20;;;;;;;1.97;1.87;;;;;;;;;;5071656;28;20407;-51
2022/08/03 09:04:47;;;;;;;2.10;1.90;;;;;;;;;;5064579;28;20449;-51
2022/08/03 09:07:13;;;;;;;2.97;2.07;;;;;;;;;;5051606;28;20417;-52
2022/08/03 09:09:39;;;;;;;3.77;2.50;;;;;;;;;;5051221;28;20401;-52
2022/08/03 09:12:05;;;;;;;2.37;2.20;;;;;;;;;;5051317;28;20405;-52
2022/08/03 09:14:32;;;;;;;2.63;2.43;;;;;;;;;;5051259;28;20448;-53
2022/08/03 09:17:02;;;;;;;5.03;2.30;;;;;;;;;;5060936;28;20527;-52
2022/08/03 09:19:28;;;;;;;2.17;2.07;;;;;;;;;;5069897;28;20851;-52
2022/08/03 09:22:09;;;;;;;3.10;2.20;;;;;;;;;;5087382;28;20482;-53
2022/08/03 09:24:36;;;;;;;1.97;1.87;;;;;;;;;;5091529;28;20529;-51
2022/08/03 09:27:04;;;;;;;2.93;2.27;;;;;;;;;;5091526;28;20419;-51
2022/08/03 09:29:31;;;;;;;5.17;1.90;;;;;;;;;;5091467;28;20820;-51
2022/08/03 09:32:04;;;;;;;2.70;1.63;;;;;;;;;;5090791;28;20914;-51
2022/08/03 09:34:30;;;;;;;5.07;2.60;;;;;;;;;;5091556;28;20404;-51
2022/08/03 09:36:59;;;;;;;3.03;2.17;;;;;;;;;;5091412;28;20462;-51
2022/08/03 09:39:28;;;;;;;3.57;3.07;;;;;;;;;;5091485;28;20814;-52
2022/08/03 09:42:03;;;;;;;2.33;1.97;;;;;;;;;;5091112;28;20403;-52
2022/08/03 09:44:43;;;;;;;3.10;2.30;;;;;;;;;;5091353;28;20450;-51
2022/08/03 09:47:09;;;;;;;2.17;1.80;;;;;;;;;;5075414;28;20445;-51
2022/08/03 09:49:36;;;;;;;3.00;1.87;;;;;;;;;;5050952;28;20401;-52
2022/08/03 09:52:12;;;;;;;4.40;1.60;;;;;;;;;;5051344;28;20460;-53
2022/08/03 09:54:38;;;;;;;3.10;1.70;;;;;;;;;;5053496;28;20907;-51
2022/08/03 09:57:04;;;;;;;2.90;2.40;;;;;;;;;;5065599;28;20456;-52
2022/08/03 09:59:31;;;;;;;2.83;2.10;;;;;;;;;;5055339;28;20478;-52
2022/08/03 10:01:58;;;;;;;3.40;1.70;;;;;;;;;;5055002;28;20778;-53
2022/08/03 10:04:25;;;;;;;2.10;1.90;;;;;;;;;;5057080;28;20490;-52
2022/08/03 10:07:03;;;;;;;2.27;1.63;;;;;;;;;;5066584;28;20440;-52
2022/08/03 10:09:29;;;;;;;7.13;1.70;;;;;;;;;;5074393;28;20741;-52
2022/08/03 10:11:55;;;;;;;2.33;1.67;;;;;;;;;;5072277;28;20973;-52
2022/08/03 10:14:22;;;;;;;2.77;1.70;;;;;;;;;;5062520;28;20503;-52
2022/08/03 10:16:48;;;;;;;2.60;1.67;;;;;;;;;;5054398;28;20421;-52
2022/08/03 10:19:15;;;;;;;2.50;1.90;;;;;;;;;;5059802;28;20503;-53
2022/08/03 10:21:42;;;;;;;2.40;1.77;;;;;;;;;;5062493;28;20433;-52
2022/08/03 10:24:11;;;;;;;1.97;1.80;;;;;;;;;;5055494;28;20514;-52
2022/08/03 10:26:39;;;;;;;3.87;1.60;;;;;;;;;;5055305;28;20437;-52
2022/08/03 10:29:07;;;;;;;3.00;1.90;;;;;;;;;;5055224;28;20880;-52
2022/08/03 10:31:39;;;;;;;2.80;1.87;;;;;;;;;;5072611;28;20400;-52
2022/08/03 10:34:25;;;;;;;2.00;1.63;;;;;;;;;;5057660;28;20408;-52
2022/08/03 10:36:52;;;;;;;1.90;1.80;;;;;;;;;;5073138;28;20523;-51
2022/08/03 10:39:21;;;;;;;3.57;2.23;;;;;;;;;;5072687;28;20401;-54
2022/08/03 10:41:48;;;;;;;5.40;1.80;;;;;;;;;;5067631;28;20795;-52
2022/08/03 10:44:22;;;;;;;1.77;1.67;;;;;;;;;;5068397;28;20448;-52
2022/08/03 10:46:49;;;;;;;2.40;1.70;;;;;;;;;;5067418;28;20451;-52
2022/08/03 10:49:16;;;;;;;2.10;1.90;;;;;;;;;;5053658;28;20417;-52
2022/08/03 10:51:44;;;;;;;3.70;2.00;;;;;;;;;;5054769;28;20402;-52
2022/08/03 10:54:28;;;;;;;7.60;3.20;;;;;;;;;;5060567;28;20413;-53
2022/08/03 10:59:45;;;;;;;6.03;1.83;;;;;;;;;;5066640;28;20411;-55
2022/08/03 11:02:12;;;;;;;2.00;1.90;;;;;;;;;;5059940;28;20450;-52
2022/08/03 11:04:38;;;;;;;1.83;1.73;;;;;;;;;;5058032;28;20481;-52
2022/08/03 11:07:17;;;;;;;3.53;2.00;;;;;;;;;;5056784;28;20472;-52
2022/08/03 11:09:47;;;;;;;2.13;1.63;;;;;;;;;;5072678;28;20408;-52
2022/08/03 11:12:24;;;;;;;1.87;1.77;;;;;;;;;;5057033;28;20450;-52
2022/08/03 11:14:50;;;;;;;2.53;2.10;;;;;;;;;;5060168;28;20852;-52
2022/08/03 11:17:16;;;;;;;1.60;1.50;;;;;;;;;;5059071;28;20448;-52
2022/08/03 11:19:43;;;;;;;1.63;1.50;;;;;;;;;;5065933;28;20413;-53
2022/08/03 11:22:09;;;;;;;6.33;2.00;;;;;;;;;;5067124;28;20408;-52
2022/08/03 11:24:35;;;;;;;10.87;2.07;;;;;;;;;;5063560;28;20484;-52
2022/08/03 11:27:16;;;;;;;2.80;2.13;;;;;;;;;;5060357;28;20497;-54
2022/08/03 11:29:55;;;;;;;8.40;2.17;;;;;;;;;;5068782;28;20285;-55
2022/08/03 11:32:36;;;;;;;3.23;1.97;;;;;;;;;;5058344;28;20405;-53
2022/08/03 11:35:09;;;;;;;2.50;1.70;;;;;;;;;;5053037;28;20402;-52
2022/08/03 11:37:35;;;;;;;3.90;2.03;;;;;;;;;;5053931;28;20471;-52
2022/08/03 11:40:02;;;;;;;1.70;1.60;;;;;;;;;;5052059;28;20421;-52
2022/08/03 11:42:28;;;;;;;3.33;1.73;;;;;;;;;;5052602;28;20404;-52
2022/08/03 11:44:53;;;;;;;2.00;1.70;;;;;;;;;;5057454;28;20551;-52
2022/08/03 11:47:20;;;;;;;1.90;1.67;;;;;;;;;;5052719;28;20516;-52
2022/08/03 11:49:47;;;;;;;2.00;1.87;;;;;;;;;;5070564;28;20698;-52
2022/08/03 11:52:13;;;;;;;2.33;1.63;;;;;;;;;;5063127;28;20448;-53
2022/08/03 11:54:39;;;;;;;2.60;1.70;;;;;;;;;;5062907;28;20819;-52
2022/08/03 11:57:05;;;;;;;4.50;1.80;;;;;;;;;;5060753;28;20455;-53
2022/08/03 11:59:32;;;;;;;3.73;1.80;;;;;;;;;;5072182;28;20432;-54
2022/08/03 12:02:08;;;;;;;1.63;1.10;;;;;;;;;;5065538;28;20931;-52
2022/08/03 12:04:53;;;;;;;1.97;1.87;;;;;;;;;;5060338;28;20495;-53
2022/08/03 12:07:19;;;;;;;1.50;1.40;;;;;;;;;;5052341;28;20529;-52
2022/08/03 12:10:04;;;;;;;4.27;1.77;;;;;;;;;;5051338;28;20418;-53
2022/08/03 12:12:30;;;;;;;1.97;1.50;;;;;;;;;;5056939;28;20926;-52
2022/08/03 12:14:57;;;;;;;2.63;1.50;;;;;;;;;;5060886;28;20413;-52
2022/08/03 12:17:23;;;;;;;1.70;1.50;;;;;;;;;;5070783;28;20194;-53
2022/08/03 12:19:49;;;;;;;4.23;2.03;;;;;;;;;;5062604;28;21030;-54
2022/08/03 12:22:15;;;;;;;3.00;1.60;;;;;;;;;;5064019;28;20424;-53
2022/08/03 12:24:42;;;;;;;2.57;1.50;;;;;;;;;;5070917;28;20539;-53
2022/08/03 12:27:08;;;;;;;1.77;1.30;;;;;;;;;;5064049;28;20460;-54
2022/08/03 12:29:34;;;;;;;4.33;1.63;;;;;;;;;;5068138;28;20426;-53
2022/08/03 12:32:00;;;;;;;2.90;1.77;;;;;;;;;;5059702;28;20174;-53
2022/08/03 12:34:44;;;;;;;1.63;1.50;;;;;;;;;;5057543;28;20320;-52
2022/08/03 12:37:10;;;;;;;5.97;1.40;;;;;;;;;;5062839;28;20194;-52
2022/08/03 12:39:36;;;;;;;2.60;1.47;;;;;;;;;;5065734;28;20414;-52
2022/08/03 12:42:02;;;;;;;1.20;1.10;;;;;;;;;;5063232;28;20929;-52
2022/08/03 12:44:29;;;;;;;5.40;1.60;;;;;;;;;;5056721;28;20244;-52
2022/08/03 12:46:57;;;;;;;9.40;1.50;;;;;;;;;;5070068;28;20956;-54
2022/08/03 12:49:23;;;;;;;5.17;1.27;;;;;;;;;;5063748;28;20444;-54
2022/08/03 12:51:49;;;;;;;2.20;1.70;;;;;;;;;;5050680;28;20476;-52
2022/08/03 12:54:16;;;;;;;1.60;1.20;;;;;;;;;;5056396;28;20189;-52
2022/08/03 12:57:01;;;;;;;2.60;1.53;;;;;;;;;;5059191;28;20220;-54
2022/08/03 12:59:28;;;;;;;6.80;1.43;;;;;;;;;;5057483;28;20412;-52
2022/08/03 13:01:54;;;;;;;3.37;1.57;;;;;;;;;;5062271;28;20496;-52
2022/08/03 13:04:30;;;;;;;3.57;1.40;;;;;;;;;;5063007;28;20456;-52
2022/08/03 13:07:06;;;;;;;2.47;1.60;;;;;;;;;;5064607;28;20949;-52
2022/08/03 13:09:48;;;;;;;1.30;1.20;;;;;;;;;;5058287;28;20616;-52
2022/08/03 13:12:16;;;;;;;1.53;1.30;;;;;;;;;;5071536;28;20400;-52
2022/08/03 13:14:42;;;;;;;3.90;1.17;;;;;;;;;;5062795;28;20416;-52
2022/08/03 13:17:08;;;;;;;5.27;1.67;;;;;;;;;;5051401;28;20955;-52
2022/08/03 13:19:35;;;;;;;4.13;1.37;;;;;;;;;;5059561;28;20421;-52
2022/08/03 13:22:01;;;;;;;2.30;1.10;;;;;;;;;;5051014;28;20421;-52
2022/08/03 13:24:27;;;;;;;1.43;1.33;;;;;;;;;;5064936;28;20448;-53
2022/08/03 13:26:53;;;;;;;1.30;1.20;;;;;;;;;;5054796;28;20452;-52
2022/08/03 13:29:19;;;;;;;7.73;1.40;;;;;;;;;;5066260;28;21243;-52
2022/08/03 13:31:45;;;;;;;3.50;1.60;;;;;;;;;;5050896;28;20553;-52
2022/08/03 13:34:11;;;;;;;4.80;2.10;;;;;;;;;;5051300;28;20182;-52
2022/08/03 13:36:37;;;;;;;3.00;1.47;;;;;;;;;;5055258;28;20251;-52
2022/08/03 13:39:03;;;;;;;3.77;1.70;;;;;;;;;;5058234;28;20183;-52
2022/08/03 13:41:29;;;;;;;1.57;1.10;;;;;;;;;;5074588;28;20599;-52
2022/08/03 13:43:55;;;;;;;2.77;1.93;;;;;;;;;;5055249;28;20943;-54
2022/08/03 13:46:21;;;;;;;2.30;1.37;;;;;;;;;;5074881;28;20519;-54
2022/08/03 13:48:47;;;;;;;4.23;1.90;;;;;;;;;;5057144;28;20220;-54
2022/08/03 13:51:13;;;;;;;3.73;1.47;;;;;;;;;;5054439;28;20417;-54
2022/08/03 13:53:39;;;;;;;2.27;1.40;;;;;;;;;;5074294;28;20182;-53
2022/08/03 13:56:05;;;;;;;4.00;1.50;;;;;;;;;;5067238;28;20221;-52
2022/08/03 13:58:31;;;;;;;1.10;1.00;;;;;;;;;;5057407;28;20175;-51
2022/08/03 14:00:57;;;;;;;1.80;1.43;;;;;;;;;;5056102;28;20573;-52
2022/08/03 14:03:23;;;;;;;4.90;1.37;;;;;;;;;;5063638;28;20243;-52
2022/08/03 14:05:49;;;;;;;1.73;1.50;;;;;;;;;;5072700;28;21026;-54
2022/08/03 14:08:15;;;;;;;1.50;1.40;;;;;;;;;;5073398;28;20412;-53
2022/08/03 14:10:42;;;;;;;2.17;1.30;;;;;;;;;;5059436;28;20178;-53
2022/08/03 14:13:09;;;;;;;1.33;1.00;;;;;;;;;;5055422;28;20420;-52
2022/08/03 14:15:35;;;;;;;1.60;1.50;;;;;;;;;;5055702;28;20515;-53
2022/08/03 14:18:01;;;;;;;1.47;1.10;;;;;;;;;;5073818;28;20495;-52
2022/08/03 14:20:27;;;;;;;1.60;1.40;;;;;;;;;;5073557;28;20546;-52
2022/08/03 14:22:54;;;;;;;3.33;1.37;;;;;;;;;;5064757;28;20183;-52
2022/08/03 14:25:20;;;;;;;3.13;1.17;;;;;;;;;;5062464;28;20292;-52
2022/08/03 14:27:46;;;;;;;2.10;1.30;;;;;;;;;;5068839;28;20507;-52
2022/08/03 14:30:12;;;;;;;4.30;1.67;;;;;;;;;;5071968;28;20170;-52
2022/08/03 14:32:39;;;;;;;2.67;1.37;;;;;;;;;;5074072;28;20920;-53
2022/08/03 14:35:05;;;;;;;2.10;1.33;;;;;;;;;;5074195;28;20409;-54
2022/08/03 14:37:32;;;;;;;2.60;1.27;;;;;;;;;;5062544;28;20448;-52
2022/08/03 14:39:58;;;;;;;2.37;1.50;;;;;;;;;;5073016;28;20473;-52
2022/08/03 14:42:24;;;;;;;2.60;1.60;;;;;;;;;;5056568;28;20440;-52
2022/08/03 14:44:50;;;;;;;2.37;1.90;;;;;;;;;;5058429;28;20948;-54
2022/08/03 14:47:16;;;;;;;2.70;1.37;;;;;;;;;;5053759;28;20495;-52
2022/08/03 14:49:42;;;;;;;1.87;1.47;;;;;;;;;;5055760;28;20414;-54
2022/08/03 14:52:08;;;;;;;1.63;1.53;;;;;;;;;;5054506;28;20932;-53
2022/08/03 14:54:34;;;;;;;4.40;1.43;;;;;;;;;;5065039;28;20765;-53
2022/08/03 14:57:00;;;;;;;2.10;1.50;;;;;;;;;;5066869;28;20985;-52